Time;durP1;ratioP1;P1;durP2;ratioP2;P2;SDS_P1;SDS_P2;PMS_P1;PMS_P2;Temp;Humidity;BMP_temperature;BMP_pressure;BME280_temperature;BME280_humidity;BME280_pressure;Samples;Min_cycle;Max_cycle;Signal;HPM_P1;HPM_P2
2021/06/01 00:54:26;;;;;;;15.80;11.73;;;13.20;99.90;;;;;;5041247;28;20075;-87
2021/06/01 02:42:13;;;;;;;18.20;12.45;;;12.00;99.90;;;;;;4915286;29;20055;-88
2021/06/01 03:45:14;;;;;;;19.20;13.52;;;11.40;99.90;;;;;;4944902;28;20057;-86
2021/06/01 04:22:44;;;;;;;15.52;11.40;;;12.00;99.90;;;;;;4959451;28;20186;-87
2021/06/01 04:40:33;;;;;;;12.20;10.52;;;13.10;99.90;;;;;;4834812;29;20055;-83
2021/06/01 04:47:29;;;;;;;14.05;9.40;;;13.40;99.90;;;;;;4853800;29;20089;-89
2021/06/01 04:54:24;;;;;;;9.38;7.38;;;16.30;98.00;;;;;;4796765;29;20049;-86
2021/06/01 04:56:50;;;;;;;12.95;8.80;;;18.20;94.50;;;;;;4807192;29;20049;-87
2021/06/01 04:59:15;;;;;;;10.70;8.00;;;19.20;91.70;;;;;;4887526;28;20051;-87
2021/06/01 05:01:41;;;;;;;11.52;9.35;;;19.60;87.80;;;;;;4993652;28;20503;-86
2021/06/01 05:04:07;;;;;;;11.43;8.38;;;19.80;87.50;;;;;;5046226;28;20635;-87
2021/06/01 05:06:33;;;;;;;10.27;8.43;;;20.30;85.00;;;;;;5027647;28;20055;-85
2021/06/01 05:09:01;;;;;;;8.63;7.30;;;20.60;80.10;;;;;;5043473;28;20090;-83
2021/06/01 05:12:33;;;;;;;10.18;7.15;;;20.90;80.30;;;;;;5033157;28;20406;-86
2021/06/01 05:15:48;;;;;;;8.63;7.78;;;20.90;78.80;;;;;;5019671;28;20044;-87
2021/06/01 05:18:29;;;;;;;8.45;7.65;;;20.60;78.80;;;;;;5028947;28;20124;-86
2021/06/01 05:32:50;;;;;;;10.95;7.15;;;19.70;84.40;;;;;;5045820;28;20035;-87
2021/06/01 05:35:01;;;;;;;7.97;7.25;;;19.70;85.60;;;;;;5047748;28;20521;-85
2021/06/01 05:37:29;;;;;;;8.55;7.30;;;19.90;87.10;;;;;;5043471;28;20043;-86
2021/06/01 05:39:57;;;;;;;8.82;7.25;;;19.90;82.10;;;;;;5043564;28;20086;-85
2021/06/01 05:42:23;;;;;;;9.43;6.93;;;20.30;82.40;;;;;;5045033;28;20036;-85
2021/06/01 05:44:49;;;;;;;11.18;7.22;;;20.20;80.60;;;;;;5048559;28;20048;-86
2021/06/01 05:47:17;;;;;;;8.27;6.93;;;20.20;79.50;;;;;;5043927;28;20087;-86
2021/06/01 05:49:44;;;;;;;6.80;6.15;;;20.50;80.80;;;;;;5044824;28;20503;-86
2021/06/01 05:52:12;;;;;;;6.65;6.03;;;20.40;79.10;;;;;;5029821;28;20135;-87
2021/06/01 05:54:38;;;;;;;9.60;7.30;;;20.70;78.00;;;;;;5045679;28;20106;-86
2021/06/01 05:57:05;;;;;;;10.32;6.00;;;20.90;76.20;;;;;;5029128;28;20052;-86
2021/06/01 05:59:32;;;;;;;8.95;5.78;;;20.80;75.50;;;;;;5032009;28;20154;-86
2021/06/01 06:01:59;;;;;;;7.55;6.30;;;21.00;74.50;;;;;;5028071;28;20072;-87
2021/06/01 06:04:25;;;;;;;8.02;5.45;;;21.00;73.90;;;;;;5045318;28;20478;-87
2021/06/01 06:06:50;;;;;;;8.18;5.00;;;21.40;74.60;;;;;;5047967;28;20507;-86
2021/06/01 06:09:16;;;;;;;6.38;5.10;;;21.20;72.60;;;;;;5045001;28;20048;-87
2021/06/01 06:11:42;;;;;;;8.60;5.70;;;21.30;72.30;;;;;;5044977;28;20729;-86
2021/06/01 06:14:07;;;;;;;7.35;4.88;;;22.00;70.80;;;;;;5049674;28;20135;-87
2021/06/01 06:16:56;;;;;;;6.93;5.57;;;21.40;69.60;;;;;;5044263;28;20072;-87
2021/06/01 06:19:22;;;;;;;6.07;5.20;;;21.40;67.00;;;;;;5042808;28;20513;-86
2021/06/01 06:21:48;;;;;;;5.63;5.13;;;21.40;69.60;;;;;;5043259;28;20071;-85
2021/06/01 06:24:13;;;;;;;8.40;5.38;;;21.50;69.20;;;;;;5044587;28;20040;-87
2021/06/01 06:26:39;;;;;;;5.28;4.78;;;21.50;66.70;;;;;;5044563;28;20066;-86
2021/06/01 06:29:07;;;;;;;6.50;5.03;;;22.00;68.60;;;;;;5046043;28;20139;-85
2021/06/01 06:31:33;;;;;;;9.32;5.03;;;21.50;65.50;;;;;;5042653;28;20044;-87
2021/06/01 06:34:00;;;;;;;5.82;4.82;;;21.90;66.20;;;;;;5045426;28;20041;-88
2021/06/01 06:36:27;;;;;;;9.18;4.95;;;21.50;66.30;;;;;;5030873;28;20040;-87
2021/06/01 06:38:53;;;;;;;7.35;5.38;;;21.60;67.50;;;;;;5046494;28;20095;-86
2021/06/01 06:41:19;;;;;;;5.55;4.82;;;21.90;67.30;;;;;;5028839;28;20041;-88
2021/06/01 06:43:52;;;;;;;7.07;5.10;;;22.10;66.80;;;;;;5033308;28;20475;-87
2021/06/01 06:46:29;;;;;;;9.00;5.13;;;22.60;65.80;;;;;;5040154;28;20786;-87
2021/06/01 06:49:00;;;;;;;7.75;5.07;;;22.40;64.20;;;;;;5045267;28;20047;-87
2021/06/01 06:51:31;;;;;;;6.18;4.63;;;22.40;63.30;;;;;;5028203;28;20041;-86
2021/06/01 06:53:57;;;;;;;7.82;4.93;;;22.10;62.50;;;;;;5025324;28;20057;-86
2021/06/01 06:56:28;;;;;;;6.13;4.22;;;22.10;63.20;;;;;;5043243;28;20045;-86
2021/06/01 06:58:55;;;;;;;6.65;5.03;;;22.10;63.80;;;;;;5045273;28;20461;-86
2021/06/01 07:01:21;;;;;;;8.75;4.72;;;22.30;65.00;;;;;;5042240;28;20044;-85
2021/06/01 07:03:47;;;;;;;6.10;4.55;;;22.20;63.80;;;;;;5042205;28;20040;-86
2021/06/01 07:06:14;;;;;;;5.03;4.47;;;22.30;62.60;;;;;;5041340;28;20029;-86
2021/06/01 07:08:40;;;;;;;7.22;4.60;;;22.30;62.50;;;;;;5037247;28;20109;-86
2021/06/01 07:11:08;;;;;;;4.70;4.13;;;22.40;63.80;;;;;;5041917;28;20507;-86
2021/06/01 07:13:44;;;;;;;6.53;4.45;;;22.90;64.60;;;;;;5043902;28;20114;-85
2021/06/01 07:16:11;;;;;;;7.22;4.28;;;23.00;63.70;;;;;;5038164;28;20033;-85
2021/06/01 07:18:41;;;;;;;6.72;3.78;;;23.30;64.80;;;;;;5042604;28;20616;-86
2021/06/01 07:21:08;;;;;;;6.28;3.85;;;23.70;64.00;;;;;;5026991;28;20054;-86
2021/06/01 07:23:43;;;;;;;5.82;3.58;;;23.50;60.50;;;;;;5045248;28;20033;-86
2021/06/01 07:26:10;;;;;;;5.15;4.10;;;23.30;58.40;;;;;;5028125;28;20037;-85
2021/06/01 07:28:56;;;;;;;5.95;2.65;;;23.60;60.00;;;;;;5027776;28;20057;-86
2021/06/01 07:31:23;;;;;;;6.35;3.17;;;23.40;58.60;;;;;;5027872;28;20045;-85
2021/06/01 07:33:56;;;;;;;6.10;3.08;;;23.50;60.30;;;;;;5028687;28;20044;-86
2021/06/01 07:36:24;;;;;;;4.75;3.45;;;23.60;57.50;;;;;;5041650;28;20033;-86
2021/06/01 07:38:49;;;;;;;3.60;3.20;;;23.50;58.40;;;;;;5043746;28;20033;-86
2021/06/01 07:41:16;;;;;;;3.70;3.10;;;23.70;58.10;;;;;;5025606;28;20116;-86
2021/06/01 07:43:43;;;;;;;13.32;3.25;;;24.00;58.20;;;;;;5024597;28;20052;-86
2021/06/01 07:46:09;;;;;;;4.60;3.47;;;23.90;55.60;;;;;;5041917;28;20033;-88
2021/06/01 07:48:37;;;;;;;5.90;2.92;;;24.00;56.10;;;;;;5025462;28;20102;-86
2021/06/01 07:51:10;;;;;;;4.43;2.03;;;24.10;54.80;;;;;;5041750;28;20124;-87
2021/06/01 07:53:38;;;;;;;3.92;2.63;;;24.20;52.10;;;;;;5042621;28;20041;-87
2021/06/01 07:56:05;;;;;;;3.13;2.20;;;24.40;53.90;;;;;;5042196;28;20111;-87
2021/06/01 07:58:51;;;;;;;2.83;2.15;;;24.50;51.30;;;;;;5028338;28;20463;-87
2021/06/01 08:01:17;;;;;;;3.58;2.08;;;24.60;49.90;;;;;;5030153;28;20045;-86
2021/06/01 08:03:52;;;;;;;4.10;2.13;;;24.50;52.80;;;;;;5042225;28;20044;-86
2021/06/01 08:06:18;;;;;;;6.75;1.92;;;24.40;51.50;;;;;;5037796;28;20845;-86
2021/06/01 08:08:44;;;;;;;6.88;2.25;;;24.50;52.10;;;;;;5020548;28;20048;-86
2021/06/01 08:11:11;;;;;;;5.32;3.00;;;24.50;51.90;;;;;;5038126;28;21496;-85
2021/06/01 08:13:38;;;;;;;2.88;2.20;;;24.30;50.30;;;;;;5023022;28;20084;-86
2021/06/01 08:16:04;;;;;;;7.93;2.58;;;24.30;52.20;;;;;;5037295;28;20092;-86
2021/06/01 08:18:35;;;;;;;5.80;2.80;;;24.30;47.70;;;;;;5057520;28;20545;-85
2021/06/01 08:23:30;;;;;;;6.18;2.00;;;24.40;50.50;;;;;;5041431;28;20037;-86
2021/06/01 08:25:56;;;;;;;4.00;1.95;;;24.40;48.50;;;;;;5024685;28;22146;-85
2021/06/01 08:28:22;;;;;;;4.85;2.30;;;24.40;47.50;;;;;;5023381;28;20045;-86
2021/06/01 08:30:47;;;;;;;3.15;1.85;;;24.70;49.00;;;;;;5041411;28;20037;-86
2021/06/01 08:33:13;;;;;;;3.15;1.40;;;24.60;46.80;;;;;;5039360;28;20065;-86
2021/06/01 08:35:40;;;;;;;5.85;1.67;;;24.60;45.10;;;;;;5039343;28;20037;-86
2021/06/01 08:38:05;;;;;;;4.75;1.92;;;24.40;46.60;;;;;;5037419;28;20033;-86
2021/06/01 08:40:32;;;;;;;6.43;1.75;;;24.50;46.20;;;;;;5040231;28;20032;-87
2021/06/01 08:42:57;;;;;;;4.47;1.67;;;24.20;47.70;;;;;;5024994;28;20099;-87
2021/06/01 08:45:24;;;;;;;1.98;1.30;;;24.40;46.10;;;;;;5041867;28;20033;-86
2021/06/01 08:47:51;;;;;;;3.25;1.35;;;24.40;46.40;;;;;;5042711;28;20037;-85
2021/06/01 08:50:18;;;;;;;6.45;1.55;;;24.60;48.40;;;;;;5042175;28;20045;-88
2021/06/01 08:52:44;;;;;;;2.85;1.27;;;24.70;46.60;;;;;;5040609;28;20479;-86
2021/06/01 08:55:12;;;;;;;3.85;1.30;;;24.40;46.10;;;;;;5007849;28;20053;-86
2021/06/01 08:57:39;;;;;;;1.65;0.90;;;24.70;44.80;;;;;;5039090;28;20040;-85
2021/06/01 09:00:07;;;;;;;2.05;1.33;;;24.40;41.20;;;;;;5039482;28;20116;-85
2021/06/01 09:02:33;;;;;;;3.55;1.80;;;24.40;40.00;;;;;;5038659;28;20411;-86
2021/06/01 09:05:05;;;;;;;2.25;1.05;;;24.40;42.50;;;;;;5024271;28;20045;-85
2021/06/01 09:10:05;;;;;;;5.10;1.48;;;24.60;45.80;;;;;;5040473;28;20045;-87
2021/06/01 09:12:45;;;;;;;4.68;1.30;;;24.80;43.00;;;;;;5039849;28;20411;-85
2021/06/01 09:15:42;;;;;;;4.60;1.48;;;24.60;40.10;;;;;;5026676;28;20036;-87
2021/06/01 09:21:14;;;;;;;3.42;1.13;;;24.90;46.40;;;;;;5049331;28;20032;-85
2021/06/01 09:23:55;;;;;;;3.60;1.45;;;25.10;44.50;;;;;;5030915;28;20040;-84
2021/06/01 09:27:16;;;;;;;2.08;1.40;;;25.20;42.40;;;;;;5047396;28;20116;-84
2021/06/01 09:29:48;;;;;;;3.05;1.30;;;25.20;42.70;;;;;;5047883;28;20041;-85
2021/06/01 09:32:16;;;;;;;4.32;1.40;;;25.30;43.70;;;;;;5047165;28;20171;-86
2021/06/01 09:34:47;;;;;;;4.60;1.85;;;25.50;44.40;;;;;;5049110;28;20695;-84
2021/06/01 09:37:34;;;;;;;6.75;1.30;;;25.30;42.30;;;;;;5047826;28;20040;-84
2021/06/01 09:40:16;;;;;;;1.48;1.02;;;25.20;42.40;;;;;;5031235;28;20048;-86
2021/06/01 09:42:45;;;;;;;3.70;1.30;;;25.20;44.20;;;;;;5047547;28;20047;-85
2021/06/01 09:45:13;;;;;;;4.90;1.23;;;25.20;42.50;;;;;;5044472;28;20052;-84
2021/06/01 09:47:57;;;;;;;4.50;1.05;;;25.10;40.10;;;;;;5046818;28;20050;-84
2021/06/01 09:50:44;;;;;;;2.83;1.20;;;25.10;42.00;;;;;;5048087;28;20036;-83
2021/06/01 09:53:32;;;;;;;9.85;1.42;;;25.10;42.50;;;;;;5048178;28;20404;-84
2021/06/01 09:56:02;;;;;;;3.17;1.48;;;25.00;40.60;;;;;;5027867;28;20668;-85
2021/06/01 09:58:27;;;;;;;2.58;1.55;;;25.20;41.60;;;;;;5046563;28;20053;-85
2021/06/01 10:00:55;;;;;;;3.42;1.40;;;25.10;41.30;;;;;;5050110;28;20056;-86
2021/06/01 10:03:23;;;;;;;4.57;1.30;;;25.20;41.80;;;;;;5031595;28;20167;-85
2021/06/01 10:05:58;;;;;;;1.92;0.98;;;25.30;42.50;;;;;;5045141;28;20039;-85
2021/06/01 10:08:26;;;;;;;4.53;1.63;;;25.20;38.80;;;;;;5048696;28;20236;-84
2021/06/01 10:11:04;;;;;;;1.10;0.85;;;25.20;40.50;;;;;;5012513;28;20044;-85
2021/06/01 10:13:34;;;;;;;2.05;1.27;;;25.20;38.90;;;;;;5047821;28;20036;-83
2021/06/01 10:17:02;;;;;;;6.03;1.15;;;25.10;39.50;;;;;;5045049;28;20051;-85
2021/06/01 10:20:15;;;;;;;3.13;1.10;;;25.00;39.50;;;;;;4926019;28;20134;-84
2021/06/01 10:22:41;;;;;;;1.42;1.15;;;25.10;41.50;;;;;;4945688;28;20042;-83
2021/06/01 10:33:13;;;;;;;2.70;0.65;;;24.80;37.10;;;;;;4926094;28;20077;-83
2021/06/01 10:42:43;;;;;;;2.13;1.20;;;24.80;39.50;;;;;;4944394;28;20232;-86
2021/06/01 10:50:08;;;;;;;4.00;1.10;;;24.70;37.80;;;;;;4915930;28;20521;-84
2021/06/01 10:53:29;;;;;;;3.25;0.85;;;24.80;36.90;;;;;;4988255;28;20169;-84
2021/06/01 10:56:02;;;;;;;6.18;0.75;;;24.80;40.80;;;;;;4951466;28;20048;-85
2021/06/01 10:59:03;;;;;;;6.47;0.95;;;25.10;39.40;;;;;;4966448;28;20054;-86
2021/06/01 11:04:24;;;;;;;4.35;1.15;;;25.10;38.80;;;;;;5010206;28;20119;-82
2021/06/01 11:06:52;;;;;;;1.52;0.70;;;25.10;37.70;;;;;;5023592;28;20021;-85
2021/06/01 11:09:32;;;;;;;2.63;1.15;;;25.20;38.30;;;;;;5042317;28;20095;-85
2021/06/01 11:12:15;;;;;;;1.35;1.00;;;25.20;39.60;;;;;;5042152;28;20037;-83
2021/06/01 11:14:41;;;;;;;1.25;0.60;;;25.20;39.70;;;;;;5041170;28;20524;-82
2021/06/01 11:17:07;;;;;;;2.30;0.90;;;25.30;38.20;;;;;;5042047;28;20041;-84
2021/06/01 11:20:02;;;;;;;3.80;0.88;;;25.30;37.10;;;;;;5043475;28;20450;-84
2021/06/01 11:22:58;;;;;;;4.20;0.80;;;25.20;40.40;;;;;;5040659;28;20029;-85
2021/06/01 11:33:29;;;;;;;1.52;0.80;;;25.30;36.10;;;;;;5042196;28;20045;-83
2021/06/01 11:35:56;;;;;;;5.07;1.13;;;25.20;35.20;;;;;;5008462;28;21683;-85
2021/06/01 11:38:34;;;;;;;2.13;0.82;;;25.30;36.90;;;;;;5043657;28;20559;-83
2021/06/01 11:41:09;;;;;;;1.63;0.75;;;25.40;37.40;;;;;;5027692;28;20040;-84
2021/06/01 11:43:35;;;;;;;4.43;0.75;;;25.40;38.50;;;;;;5041308;28;20033;-84
2021/06/01 11:51:21;;;;;;;2.08;0.85;;;25.40;38.40;;;;;;5041335;28;20045;-84
2021/06/01 11:54:04;;;;;;;3.58;1.00;;;25.20;37.50;;;;;;5043531;28;20502;-85
2021/06/01 12:18:42;;;;;;;3.70;0.90;;;25.40;39.10;;;;;;5042405;28;21071;-84
2021/06/01 12:21:19;;;;;;;1.60;0.82;;;25.70;36.40;;;;;;5021877;28;20044;-84
2021/06/01 12:24:09;;;;;;;6.20;0.95;;;25.60;35.50;;;;;;5042307;28;20040;-84
2021/06/01 12:32:01;;;;;;;3.05;0.73;;;25.50;41.10;;;;;;5042665;28;20149;-85
2021/06/01 12:46:02;;;;;;;2.00;0.85;;;25.40;39.40;;;;;;5042200;28;20037;-84
2021/06/01 13:14:17;;;;;;;2.95;1.48;;;25.20;40.60;;;;;;5042017;28;20111;-84
2021/06/01 13:22:52;;;;;;;3.05;1.00;;;25.30;40.50;;;;;;5038524;28;20064;-85
2021/06/01 13:32:06;;;;;;;5.82;1.42;;;25.40;38.20;;;;;;5044855;28;20047;-84
2021/06/01 13:40:09;;;;;;;3.75;1.42;;;25.30;39.00;;;;;;5041928;28;20029;-85
2021/06/01 13:51:03;;;;;;;2.78;1.75;;;25.60;43.30;;;;;;5041952;28;20033;-83
2021/06/01 13:56:04;;;;;;;13.60;2.95;;;25.40;41.30;;;;;;5041640;28;20239;-85
2021/06/01 14:01:25;;;;;;;6.25;1.52;;;25.50;42.50;;;;;;5046046;28;20076;-84
2021/06/01 14:09:58;;;;;;;4.50;1.00;;;25.50;41.30;;;;;;5049027;28;20535;-84
2021/06/01 15:10:22;;;;;;;1.67;1.38;;;25.40;41.20;;;;;;5046427;28;20318;-84
2021/06/01 15:30:16;;;;;;;3.97;1.65;;;25.50;41.70;;;;;;5044046;28;20045;-82
2021/06/01 15:33:01;;;;;;;5.32;1.33;;;25.50;43.50;;;;;;5028266;28;20043;-82
2021/06/01 15:49:17;;;;;;;3.97;1.38;;;25.40;41.00;;;;;;5046547;28;19968;-83
2021/06/01 15:52:12;;;;;;;3.47;2.03;;;25.20;42.20;;;;;;5031791;28;20045;-84
2021/06/01 16:12:06;;;;;;;1.88;1.60;;;25.10;43.60;;;;;;5029892;28;20049;-83
2021/06/01 16:23:37;;;;;;;1.90;1.42;;;24.90;43.70;;;;;;4947577;28;20050;-84
2021/06/01 16:43:50;;;;;;;5.60;2.05;;;24.80;46.80;;;;;;5047931;28;20082;-84
2021/06/01 17:11:04;;;;;;;5.28;1.95;;;24.20;46.70;;;;;;5045579;28;20037;-86
2021/06/01 17:13:42;;;;;;;3.85;1.95;;;24.10;46.30;;;;;;5043614;28;20029;-85
2021/06/01 17:16:15;;;;;;;3.13;1.90;;;24.10;46.50;;;;;;5046416;28;20048;-84
2021/06/01 17:35:20;;;;;;;4.30;2.08;;;23.80;47.60;;;;;;5049016;28;20467;-83
2021/06/01 17:37:46;;;;;;;7.28;1.98;;;23.80;47.70;;;;;;5048304;28;20037;-83
2021/06/01 17:40:15;;;;;;;6.70;2.10;;;23.80;48.40;;;;;;5050538;28;20402;-85
2021/06/01 17:43:05;;;;;;;4.50;1.98;;;23.70;48.20;;;;;;5049801;28;20124;-85
2021/06/01 17:45:57;;;;;;;5.13;1.83;;;23.60;48.00;;;;;;5027229;28;20041;-88
2021/06/01 17:49:15;;;;;;;4.97;2.30;;;23.60;48.80;;;;;;5033472;28;20044;-85
2021/06/01 17:52:43;;;;;;;5.05;2.63;;;23.60;48.90;;;;;;5049966;28;20039;-85
2021/06/01 17:55:15;;;;;;;10.38;2.35;;;23.50;49.00;;;;;;5015635;28;20053;-85
2021/06/01 17:57:48;;;;;;;8.27;2.58;;;23.50;49.70;;;;;;5033383;28;20046;-86
2021/06/01 18:00:16;;;;;;;4.63;2.08;;;23.40;50.50;;;;;;5033176;28;20136;-86
2021/06/01 18:02:44;;;;;;;6.82;2.17;;;23.40;50.60;;;;;;5049193;28;20037;-85
2021/06/01 18:05:13;;;;;;;4.00;2.42;;;23.40;50.60;;;;;;5030893;28;20037;-85
2021/06/01 18:07:47;;;;;;;3.35;2.60;;;23.30;50.80;;;;;;5053017;28;20037;-84
2021/06/01 19:26:29;;;;;;;7.00;2.80;;;20.60;70.70;;;;;;5046212;28;20033;-86
2021/06/01 19:50:23;;;;;;;12.80;4.20;;;19.50;83.30;;;;;;5048087;28;20045;-85
2021/06/01 19:52:53;;;;;;;7.10;3.47;;;19.40;83.10;;;;;;5044390;28;20040;-85
2021/06/01 19:55:22;;;;;;;10.45;4.30;;;19.20;83.50;;;;;;5028146;28;20036;-85
2021/06/01 19:57:51;;;;;;;5.40;3.60;;;19.10;84.30;;;;;;5041693;28;20060;-85
2021/06/01 20:00:18;;;;;;;4.38;3.25;;;19.60;85.30;;;;;;5040736;28;20851;-86
2021/06/01 20:02:45;;;;;;;5.20;3.55;;;18.90;85.60;;;;;;5044226;28;20041;-85
2021/06/01 20:05:13;;;;;;;5.65;4.45;;;18.90;86.00;;;;;;5027487;28;20722;-84
2021/06/01 20:07:40;;;;;;;7.78;4.00;;;18.70;86.80;;;;;;5045475;28;20029;-85
2021/06/01 20:10:11;;;;;;;10.07;4.22;;;18.70;87.70;;;;;;5042792;28;20559;-85
2021/06/01 20:12:36;;;;;;;6.70;3.97;;;18.60;88.00;;;;;;5042481;28;20052;-84
2021/06/01 20:15:04;;;;;;;8.80;4.22;;;18.50;88.40;;;;;;5044774;28;20033;-85
2021/06/01 20:17:30;;;;;;;7.20;4.80;;;18.40;89.50;;;;;;5043118;28;20124;-85
2021/06/01 20:19:58;;;;;;;11.25;4.88;;;18.40;90.10;;;;;;5028315;28;20214;-85
2021/06/01 20:22:30;;;;;;;7.97;4.70;;;18.30;90.60;;;;;;5043682;28;20034;-85
2021/06/01 20:25:01;;;;;;;6.78;4.78;;;18.20;90.70;;;;;;5044167;28;20045;-85
2021/06/01 20:27:27;;;;;;;10.20;5.10;;;18.20;90.90;;;;;;5044671;28;20488;-85
2021/06/01 20:29:59;;;;;;;7.28;4.95;;;18.00;91.40;;;;;;5041507;28;20664;-85
2021/06/01 20:35:16;;;;;;;8.15;5.40;;;17.90;91.70;;;;;;5043837;28;20939;-85
2021/06/01 20:37:43;;;;;;;9.05;5.15;;;17.70;91.90;;;;;;5021762;28;20032;-84
2021/06/01 20:40:12;;;;;;;5.30;4.80;;;17.70;92.10;;;;;;5041713;28;20082;-85
2021/06/01 20:42:41;;;;;;;6.90;5.20;;;17.60;92.20;;;;;;5043172;28;20041;-84
2021/06/01 20:45:08;;;;;;;10.60;5.60;;;17.50;92.30;;;;;;5042117;28;20037;-85
2021/06/01 20:47:35;;;;;;;9.75;4.90;;;17.50;92.60;;;;;;5042667;28;20037;-85
2021/06/01 20:50:01;;;;;;;9.30;4.93;;;17.30;92.40;;;;;;5043924;28;20761;-85
2021/06/01 20:52:35;;;;;;;6.82;5.25;;;17.40;92.50;;;;;;5042252;28;20385;-84
2021/06/01 20:55:00;;;;;;;6.20;5.15;;;17.40;92.50;;;;;;5039903;28;20400;-84
2021/06/01 20:57:28;;;;;;;6.32;4.82;;;17.20;92.70;;;;;;5040779;28;20028;-84
2021/06/01 20:59:57;;;;;;;9.07;5.75;;;17.20;92.80;;;;;;5025435;28;20130;-85
2021/06/01 21:02:24;;;;;;;6.25;4.95;;;17.10;93.00;;;;;;5040705;28;20040;-85
2021/06/01 21:04:51;;;;;;;6.72;5.68;;;17.00;93.20;;;;;;5045318;28;20037;-84
2021/06/01 21:07:18;;;;;;;5.70;5.20;;;16.90;93.20;;;;;;5043501;28;20072;-84
2021/06/01 21:09:46;;;;;;;6.97;5.28;;;16.90;93.30;;;;;;5041673;28;20117;-84
2021/06/01 21:12:12;;;;;;;8.32;4.40;;;16.90;93.40;;;;;;5040964;28;20068;-84
2021/06/01 21:14:39;;;;;;;6.90;5.78;;;16.80;93.40;;;;;;5022143;28;20045;-84
2021/06/01 21:17:05;;;;;;;6.07;5.45;;;16.80;93.30;;;;;;5038719;28;20049;-85
2021/06/01 21:19:31;;;;;;;6.65;5.10;;;16.70;93.20;;;;;;5038870;28;20041;-85
2021/06/01 21:21:56;;;;;;;10.18;5.53;;;16.70;93.30;;;;;;5038532;28;20033;-84
2021/06/01 21:24:22;;;;;;;7.93;4.93;;;16.70;93.50;;;;;;5039122;28;20129;-84
2021/06/01 21:26:48;;;;;;;8.55;5.28;;;16.50;93.50;;;;;;5041826;28;20041;-84
2021/06/01 21:29:14;;;;;;;7.75;5.75;;;16.50;93.40;;;;;;5039587;28;20502;-84
2021/06/01 21:31:51;;;;;;;6.60;5.00;;;16.60;93.40;;;;;;5038928;28;20041;-85
2021/06/01 21:34:21;;;;;;;6.90;5.20;;;16.40;93.60;;;;;;5041617;28;20402;-84
2021/06/01 21:36:51;;;;;;;8.20;5.63;;;16.30;93.80;;;;;;5038683;28;20472;-84
2021/06/01 21:39:21;;;;;;;7.53;4.95;;;16.60;93.80;;;;;;5038497;28;20919;-85
2021/06/01 21:41:48;;;;;;;9.48;5.68;;;16.20;93.90;;;;;;5041285;28;20090;-84
2021/06/01 21:44:15;;;;;;;6.57;5.13;;;16.50;94.20;;;;;;5037850;28;20034;-84
2021/06/01 21:46:46;;;;;;;6.72;5.50;;;16.50;94.10;;;;;;5038439;28;20041;-85
2021/06/01 21:49:14;;;;;;;9.30;5.57;;;16.10;94.10;;;;;;5020231;28;20063;-84
2021/06/01 21:51:40;;;;;;;8.93;6.05;;;16.10;94.30;;;;;;5038917;28;20506;-84
2021/06/01 21:54:08;;;;;;;7.13;5.68;;;16.00;94.20;;;;;;5039414;28;20622;-84
2021/06/01 21:56:34;;;;;;;8.07;5.63;;;16.00;94.40;;;;;;5038001;28;20696;-84
2021/06/01 21:59:02;;;;;;;11.60;6.05;;;16.00;94.40;;;;;;5038464;28;20045;-84
2021/06/01 22:01:29;;;;;;;8.57;5.97;;;15.80;94.50;;;;;;5019541;28;20041;-85
2021/06/01 22:03:55;;;;;;;7.65;5.57;;;15.90;94.50;;;;;;5041928;28;20135;-84
2021/06/01 22:06:25;;;;;;;7.45;6.18;;;15.90;94.70;;;;;;5038402;28;20045;-85
2021/06/01 22:08:52;;;;;;;8.23;6.28;;;15.90;94.80;;;;;;5029291;28;20099;-84
2021/06/01 22:11:18;;;;;;;8.18;6.30;;;15.80;94.90;;;;;;5021463;28;20048;-84
2021/06/01 22:13:45;;;;;;;6.85;6.15;;;15.80;94.90;;;;;;5024527;28;20048;-84
2021/06/01 22:16:14;;;;;;;8.65;6.07;;;15.80;95.20;;;;;;5019516;28;20095;-84
2021/06/01 22:18:53;;;;;;;9.90;6.10;;;15.70;95.30;;;;;;5030118;28;20052;-84
2021/06/01 22:21:20;;;;;;;6.97;5.70;;;15.60;95.40;;;;;;5039062;28;20041;-84
2021/06/01 22:23:55;;;;;;;6.35;5.53;;;15.90;95.50;;;;;;5040700;28;20451;-84
2021/06/01 22:26:39;;;;;;;14.45;5.93;;;15.60;95.60;;;;;;5040705;28;20483;-84
2021/06/01 22:29:05;;;;;;;10.10;6.20;;;15.60;95.70;;;;;;5042208;28;20073;-84
2021/06/01 22:31:33;;;;;;;7.50;6.20;;;15.50;95.80;;;;;;5041580;28;20032;-84
2021/06/01 22:34:00;;;;;;;6.70;5.90;;;15.60;95.90;;;;;;5040360;28;20048;-84
2021/06/01 22:36:40;;;;;;;9.30;5.70;;;15.50;95.90;;;;;;5040552;28;20076;-84
2021/06/01 22:39:09;;;;;;;6.78;5.85;;;15.50;96.00;;;;;;5042976;28;20048;-83
2021/06/01 22:41:35;;;;;;;8.07;6.10;;;15.40;96.00;;;;;;5042926;28;20041;-84
2021/06/01 22:44:01;;;;;;;8.55;6.63;;;15.40;96.00;;;;;;5043713;28;20661;-84
2021/06/01 22:46:31;;;;;;;7.47;6.03;;;15.40;96.00;;;;;;5039714;28;20041;-84
2021/06/01 22:49:01;;;;;;;9.82;6.20;;;15.50;96.10;;;;;;5041623;28;20086;-84
2021/06/01 22:51:29;;;;;;;9.93;5.88;;;15.50;96.00;;;;;;5040444;28;20047;-84
2021/06/01 22:53:55;;;;;;;6.45;5.85;;;15.80;96.00;;;;;;5043160;28;21053;-85
2021/06/01 22:56:24;;;;;;;7.32;6.65;;;15.40;96.10;;;;;;5041294;28;20506;-84
2021/06/01 22:58:52;;;;;;;7.55;5.97;;;15.30;95.60;;;;;;5043811;28;20381;-84
2021/06/01 23:01:29;;;;;;;7.25;5.35;;;15.40;95.40;;;;;;5041371;28;20091;-85
2021/06/01 23:03:58;;;;;;;8.63;5.90;;;15.40;95.10;;;;;;5042047;28;20045;-85
2021/06/01 23:06:33;;;;;;;8.95;6.28;;;15.30;95.00;;;;;;5039716;28;20037;-84
2021/06/01 23:09:04;;;;;;;7.38;5.32;;;15.30;94.90;;;;;;5041880;28;20044;-84
2021/06/01 23:11:33;;;;;;;10.13;5.97;;;15.40;94.90;;;;;;5040373;28;20073;-85
2021/06/01 23:14:04;;;;;;;8.45;6.00;;;15.30;94.80;;;;;;5040408;28;20086;-84
2021/06/01 23:16:32;;;;;;;13.75;6.28;;;15.40;94.70;;;;;;5041325;28;20493;-84
2021/06/01 23:18:59;;;;;;;7.07;5.18;;;15.30;94.60;;;;;;5041230;28;20128;-85
2021/06/01 23:21:27;;;;;;;7.15;6.05;;;15.40;94.50;;;;;;5040658;28;20135;-84
2021/06/01 23:23:53;;;;;;;8.65;6.13;;;15.30;94.50;;;;;;5021064;28;20037;-84
2021/06/01 23:26:19;;;;;;;8.07;5.78;;;15.40;94.50;;;;;;5040625;28;20651;-84
2021/06/01 23:28:46;;;;;;;8.23;6.00;;;15.40;94.40;;;;;;5039667;28;20518;-85
2021/06/01 23:31:13;;;;;;;6.50;4.88;;;15.30;94.40;;;;;;5045135;28;20048;-85
2021/06/01 23:33:39;;;;;;;9.10;6.15;;;15.30;94.20;;;;;;5042244;28;20120;-84
2021/06/01 23:36:06;;;;;;;7.55;5.55;;;15.20;94.20;;;;;;5038207;28;20037;-85
2021/06/01 23:38:37;;;;;;;7.85;6.35;;;15.20;94.10;;;;;;5044319;28;20117;-84
2021/06/01 23:41:05;;;;;;;8.55;5.68;;;15.00;94.00;;;;;;5025042;28;20047;-85
2021/06/01 23:43:32;;;;;;;9.32;6.38;;;15.20;94.30;;;;;;5040650;28;20037;-85
2021/06/01 23:46:02;;;;;;;10.90;5.75;;;15.10;94.50;;;;;;5043313;28;20037;-83
2021/06/01 23:51:10;;;;;;;8.52;6.40;;;15.20;94.50;;;;;;5042400;28;20037;-84
2021/06/01 23:54:49;;;;;;;7.03;5.65;;;15.00;94.40;;;;;;5029437;28;20090;-85
2021/06/01 23:57:23;;;;;;;6.70;5.72;;;14.90;94.40;;;;;;4967881;28;20050;-84
2021/06/01 23:59:49;;;;;;;6.47;5.13;;;14.90;94.40;;;;;;4994061;28;20446;-85
